South Britain, CT

6:03 PM EDT on August 27, 2014 (GMT -0400)
Danbury Municipal | Change Station
CLOSE
Current Station
Airport
Location: Danbury,
Elevation: 456 ft
Nearby Weather Stations
Active Advisory: Air Quality Alert

Elev 456 ft 41.37 °N, 73.48 °W | Updated 10 minutes ago

Scattered Clouds
Scattered Clouds
85 °F
Feels Like 87 °F
N
10
Wind Variable Wind from South

Today
High -- | Low -- °F
--% Chance of Precip.
Yesterday
High -- | Low -- °F
Precip. -- in
6:14 AM 7:34 PM
Waxing Crescent, 5% visible
Pressure 29.88 in
Visibility 10.0 miles
Clouds Scattered Clouds 5000 ft
Heat Index 87 °F
Dew Point 65 °F
Humidity 51%
Rainfall 0.00 in
Snow Depth Not available.
UV 1 out of 12
Pollen 8.90 out of 12
Ozone Moderate
PM2.5 Moderate
Flu Activity Not available.
METAR KDXR 272153Z 19009KT 10SM SCT050 29/18 A2989 RMK AO2 LTG DSNT N AND NW SLP117 T02940183

More Conditions Fewer Conditions

Pressure 29.88 in
Visibility 10.0 miles
Clouds Scattered Clouds 5000 ft
Heat Index 87 °F
Dew Point 65 °F
Humidity 51%
Rainfall 0.00 in
Snow Depth Not available.
UV 1 out of 12
Pollen 8.90 out of 12
Ozone Moderate
PM2.5 Moderate
Flu Activity Not available.
METAR KDXR 272153Z 19009KT 10SM SCT050 29/18 A2989 RMK AO2 LTG DSNT N AND NW SLP117 T02940183

More Conditions Fewer Conditions

10-Day Weather Forecast

Almanac

Astronomy

Aug. 27, 2014 Rise Set
Actual Time 6:14 AM EDT 7:34 PM EDT
Civil Twilight 5:45 AM EDT 8:02 PM EDT
Nautical Twilight 5:10 AM EDT 8:37 PM EDT
Astronomical Twilight 4:34 AM EDT 9:13 PM EDT
Moon 8:09 AM EDT 8:22 PM EDT
Length of Visible Light 14h 17m
Length of Day
13h 20m
Tomorrow will be 2m 37s shorter.
Waxing Crescent, 5% of the Moon is Illuminated
Today
Waxing Crescent
Sep 2
First Quarter
Sep 8
Full
Sep 15
Last Quarter
Sep 24
New

Today's Extremes

State Highs State Lows

Community

WunderPhotos

Upload Photos

1,747,798 photos uploaded!

Nearby

Air Quality

  Air Quality AQ Index Pollutant
Yesterday Good
OZONE
Yesterday Good
PM2.5
Current Moderate
OZONE
Current Moderate
PM2.5
Wednesday Moderate
OZONE
Wednesday Moderate
PM2.5
Thursday Good
OZONE
Thursday Good
PM2.5

Snow Depth

Station Depth Elevation
No new snow has been reported.

Earthquake Activity

City Distance Mag. Time & Date
No recent earthquake activity has been reported nearby.
Minimum magnitude displayed is 2.5.

Coastal Water Temperatures

Place Temperature
Kings Point, NY 75.9 °F
Bridgeport, CT 75.9 °F

Nearby Weather Stations